createdAt,value
2018-07-04T00:00:10.849Z,80.46
2018-07-04T00:01:10.830Z,80.17
2018-07-04T00:02:10.817Z,80.84
2018-07-04T00:03:10.803Z,80.75
2018-07-04T00:04:10.811Z,80.55
2018-07-04T00:05:10.784Z,80.84
2018-07-04T00:06:10.778Z,80.75
2018-07-04T00:07:10.767Z,81.04
2018-07-04T00:08:10.745Z,81.04
2018-07-04T00:09:10.724Z,81.71
2018-07-04T00:10:10.711Z,81.71
2018-07-04T00:11:10.700Z,81.81
2018-07-04T00:12:10.686Z,81.23
2018-07-04T00:13:10.676Z,82.38
2018-07-04T00:14:10.660Z,81.99
2018-07-04T00:15:10.650Z,82.15
2018-07-04T00:16:10.644Z,81.86
2018-07-04T00:17:10.622Z,82.15
2018-07-04T00:18:10.610Z,82.15
2018-07-04T00:19:10.598Z,82.24
2018-07-04T00:20:10.635Z,82.53
2018-07-04T00:21:10.571Z,82.24
2018-07-04T00:22:10.561Z,82.63
2018-07-04T00:23:10.547Z,82.82
2018-07-04T00:24:10.532Z,83.11
2018-07-04T00:25:10.520Z,83.01
2018-07-04T00:26:10.506Z,82.92
2018-07-04T00:27:10.494Z,83.01
2018-07-04T00:28:10.481Z,82.73
2018-07-04T00:29:10.473Z,82.82
2018-07-04T00:30:10.452Z,82.73
2018-07-04T00:31:10.445Z,82.63
2018-07-04T00:32:10.427Z,82.92
2018-07-04T00:33:10.414Z,82.82
2018-07-04T00:34:10.407Z,83.20
2018-07-04T00:35:10.389Z,83.11
2018-07-04T00:36:10.377Z,82.92
2018-07-04T00:37:10.363Z,83.30
2018-07-04T00:38:10.348Z,83.20
2018-07-04T00:39:10.337Z,83.30
2018-07-04T00:40:10.324Z,82.87
2018-07-04T00:41:10.312Z,83.36
2018-07-04T00:42:10.296Z,83.74
2018-07-04T00:43:10.287Z,83.64
2018-07-04T00:44:10.271Z,84.12
2018-07-04T00:45:10.259Z,84.41
2018-07-04T00:46:10.244Z,83.84
2018-07-04T00:47:10.231Z,84.51
2018-07-04T00:48:10.218Z,84.51
2018-07-04T00:49:10.204Z,84.31
2018-07-04T00:50:10.191Z,84.31
2018-07-04T00:51:10.179Z,84.03
2018-07-04T00:52:10.174Z,84.22
2018-07-04T00:53:10.151Z,84.03
2018-07-04T00:54:10.137Z,83.64
2018-07-04T00:55:10.126Z,83.74
2018-07-04T00:56:10.113Z,83.84
2018-07-04T00:57:10.099Z,83.84
2018-07-04T00:58:10.087Z,83.64
2018-07-04T00:59:10.071Z,84.22
2018-07-04T01:00:10.060Z,84.12
2018-07-04T01:01:10.046Z,84.60
2018-07-04T01:02:10.035Z,84.80
2018-07-04T01:03:10.023Z,83.93
2018-07-04T01:04:10.008Z,84.60
2018-07-04T01:05:09.992Z,84.51
2018-07-04T01:06:09.980Z,84.51
2018-07-04T01:07:09.968Z,84.31
2018-07-04T01:08:09.953Z,84.22
2018-07-04T01:09:09.941Z,84.31
2018-07-04T01:10:09.925Z,85.18
2018-07-04T01:11:09.912Z,84.80
2018-07-04T01:12:09.900Z,84.56
2018-07-04T01:13:09.885Z,85.04
2018-07-04T01:14:09.874Z,84.66
2018-07-04T01:15:09.860Z,85.24
2018-07-04T01:16:09.852Z,85.04
2018-07-04T01:17:09.838Z,85.52
2018-07-04T01:18:09.818Z,84.95
2018-07-04T01:19:09.804Z,85.24
2018-07-04T01:20:09.792Z,85.81
2018-07-04T01:21:09.778Z,85.04
2018-07-04T01:22:09.764Z,84.70
2018-07-04T01:23:09.751Z,85.28
2018-07-04T01:24:09.737Z,84.75
2018-07-04T01:25:09.725Z,85.04
2018-07-04T01:26:09.710Z,84.95
2018-07-04T01:27:09.697Z,84.66
2018-07-04T01:28:09.686Z,85.24
2018-07-04T01:29:09.670Z,85.42
2018-07-04T01:30:09.663Z,85.04
2018-07-04T01:31:09.651Z,85.52
2018-07-04T01:32:09.630Z,85.42
2018-07-04T01:33:09.624Z,85.91
2018-07-04T01:34:09.607Z,86.38
2018-07-04T01:35:09.589Z,86.38
2018-07-04T01:36:09.584Z,86.54
2018-07-04T01:37:09.563Z,86.48
2018-07-04T01:38:09.550Z,86.54
2018-07-04T01:39:09.545Z,87.01
2018-07-04T01:40:09.523Z,86.72
2018-07-04T01:41:09.509Z,86.54
2018-07-04T01:42:09.507Z,86.54
2018-07-04T01:43:09.482Z,86.58
2018-07-04T01:44:09.468Z,86.63
2018-07-04T01:45:09.459Z,86.63
2018-07-04T01:46:09.440Z,86.72
2018-07-04T01:47:09.428Z,86.54
2018-07-04T01:48:09.429Z,86.72
2018-07-04T01:49:09.408Z,86.72
2018-07-04T01:50:09.430Z,86.92
2018-07-04T01:51:09.371Z,87.21
2018-07-04T01:52:09.358Z,87.11
2018-07-04T01:53:09.349Z,86.82
2018-07-04T01:54:09.330Z,87.30
2018-07-04T01:55:09.317Z,86.72
2018-07-04T01:56:09.305Z,87.11
2018-07-04T01:57:09.292Z,86.54
2018-07-04T01:58:09.275Z,86.54
2018-07-04T01:59:09.269Z,86.63
2018-07-04T02:00:09.252Z,86.63
2018-07-04T02:01:09.235Z,87.11
2018-07-04T02:02:09.371Z,86.92
2018-07-04T02:03:09.206Z,87.21
2018-07-04T02:04:09.195Z,87.30
2018-07-04T02:05:09.180Z,87.21
2018-07-04T02:06:09.174Z,86.82
2018-07-04T02:07:09.153Z,86.92
2018-07-04T02:08:09.137Z,87.98
2018-07-04T02:09:09.125Z,87.59
2018-07-04T02:10:09.115Z,87.30
2018-07-04T02:11:09.097Z,87.21
2018-07-04T02:12:09.086Z,86.92
2018-07-04T02:13:09.069Z,87.01
2018-07-04T02:14:09.055Z,86.82
2018-07-04T02:15:09.041Z,87.21
2018-07-04T02:16:09.028Z,87.21
2018-07-04T02:17:09.019Z,87.78
2018-07-04T02:18:09.000Z,87.78
2018-07-04T02:19:08.985Z,87.78
2018-07-04T02:20:08.972Z,87.93
2018-07-04T02:21:08.990Z,87.84
2018-07-04T02:22:08.960Z,87.64
2018-07-04T02:23:08.932Z,87.35
2018-07-04T02:24:08.918Z,88.22
2018-07-04T02:25:08.902Z,87.55
2018-07-04T02:26:08.889Z,87.64
2018-07-04T02:27:08.883Z,87.45
2018-07-04T02:28:08.863Z,88.22
2018-07-04T02:29:08.851Z,88.22
2018-07-04T02:30:08.834Z,87.84
2018-07-04T02:31:08.820Z,88.22
2018-07-04T02:32:08.809Z,87.93
2018-07-04T02:33:08.803Z,87.84
2018-07-04T02:34:08.796Z,88.41
2018-07-04T02:35:08.764Z,87.84
2018-07-04T02:36:08.762Z,88.31
2018-07-04T02:37:08.736Z,87.93
2018-07-04T02:38:08.722Z,87.55
2018-07-04T02:39:08.707Z,87.64
2018-07-04T02:40:08.693Z,87.93
2018-07-04T02:41:08.681Z,88.41
2018-07-04T02:42:08.666Z,87.93
2018-07-04T02:43:08.653Z,88.02
2018-07-04T02:44:08.639Z,88.02
2018-07-04T02:45:08.625Z,88.12
2018-07-04T02:46:08.609Z,88.12
2018-07-04T02:47:08.600Z,88.31
2018-07-04T02:48:08.582Z,87.84
2018-07-04T02:49:08.568Z,87.84
2018-07-04T02:50:08.553Z,88.12
2018-07-04T02:51:08.542Z,87.55
2018-07-04T02:52:08.526Z,87.93
2018-07-04T02:53:08.519Z,88.46
2018-07-04T02:54:08.497Z,88.41
2018-07-04T02:55:08.484Z,88.56
2018-07-04T02:56:08.469Z,88.51
2018-07-04T02:57:08.462Z,88.65
2018-07-04T02:58:08.443Z,88.60
2018-07-04T02:59:08.436Z,88.60
2018-07-04T03:00:08.424Z,88.41
2018-07-04T03:01:08.408Z,88.31
2018-07-04T03:02:08.387Z,88.12
2018-07-04T03:03:08.371Z,88.60
2018-07-04T03:04:08.407Z,88.41
2018-07-04T03:05:08.345Z,88.60
2018-07-04T03:06:08.329Z,87.55
2018-07-04T03:07:08.316Z,87.84
2018-07-04T03:08:08.303Z,88.12
2018-07-04T03:09:08.301Z,88.12
2018-07-04T03:10:08.273Z,87.74
2018-07-04T03:11:08.266Z,88.12
2018-07-04T03:12:08.244Z,88.12
2018-07-04T03:13:08.240Z,87.60
2018-07-04T03:14:08.215Z,88.17
2018-07-04T03:15:08.208Z,88.65
2018-07-04T03:16:08.188Z,88.46
2018-07-04T03:17:08.177Z,88.56
2018-07-04T03:18:08.161Z,88.17
2018-07-04T03:19:08.158Z,88.08
2018-07-04T03:20:08.283Z,87.88
2018-07-04T03:21:08.120Z,88.08
2018-07-04T03:22:08.103Z,87.88
2018-07-04T03:23:08.092Z,87.64
2018-07-04T03:24:08.074Z,87.60
2018-07-04T03:25:08.062Z,87.60
2018-07-04T03:26:08.054Z,87.93
2018-07-04T03:27:08.033Z,87.88
2018-07-04T03:28:08.018Z,88.17
2018-07-04T03:29:08.004Z,87.98
2018-07-04T03:30:07.988Z,88.27
2018-07-04T03:31:07.976Z,88.17
2018-07-04T03:32:07.961Z,88.37
2018-07-04T03:33:07.993Z,88.56
2018-07-04T03:34:07.932Z,88.65
2018-07-04T03:35:07.925Z,88.56
2018-07-04T03:36:07.906Z,88.46
2018-07-04T03:37:07.892Z,88.56
2018-07-04T03:38:07.877Z,88.56
2018-07-04T03:39:07.866Z,88.65
2018-07-04T03:40:07.849Z,88.46
2018-07-04T03:41:07.835Z,88.56
2018-07-04T03:42:07.821Z,88.27
2018-07-04T03:43:07.813Z,88.17
2018-07-04T03:44:07.790Z,88.12
2018-07-04T03:45:07.778Z,88.02
2018-07-04T03:46:07.761Z,87.55
2018-07-04T03:47:07.799Z,87.64
2018-07-04T03:48:07.734Z,87.84
2018-07-04T03:49:07.722Z,87.35
2018-07-04T03:50:07.707Z,87.26
2018-07-04T03:51:07.696Z,87.26
2018-07-04T03:52:07.689Z,86.97
2018-07-04T03:53:07.674Z,86.78
2018-07-04T03:54:07.649Z,86.78
2018-07-04T03:55:07.635Z,86.97
2018-07-04T03:56:07.621Z,86.88
2018-07-04T03:57:07.617Z,87.07
2018-07-04T03:58:07.599Z,87.07
2018-07-04T03:59:07.578Z,86.88
2018-07-04T04:00:07.566Z,86.68
2018-07-04T04:01:07.551Z,87.07
2018-07-04T04:02:07.537Z,86.97
2018-07-04T04:03:07.522Z,86.97
2018-07-04T04:04:07.513Z,86.88
2018-07-04T04:05:07.495Z,86.88
2018-07-04T04:06:07.481Z,86.88
2018-07-04T04:07:07.467Z,87.07
2018-07-04T04:08:07.452Z,86.78
2018-07-04T04:09:07.439Z,87.26
2018-07-04T04:10:07.431Z,87.16
2018-07-04T04:11:07.412Z,86.88
2018-07-04T04:12:07.397Z,86.78
2018-07-04T04:13:07.383Z,86.58
2018-07-04T04:14:07.367Z,87.07
2018-07-04T04:15:07.360Z,86.21
2018-07-04T04:16:07.343Z,85.72
2018-07-04T04:17:07.327Z,85.63
2018-07-04T04:18:07.319Z,85.63
2018-07-04T04:19:07.299Z,85.34
2018-07-04T04:20:07.289Z,85.58
2018-07-04T04:21:07.271Z,85.38
2018-07-04T04:22:07.257Z,84.61
2018-07-04T04:23:07.251Z,84.71
2018-07-04T04:24:07.229Z,85.15
2018-07-04T04:25:07.217Z,85.44
2018-07-04T04:26:07.201Z,86.21
2018-07-04T04:27:07.220Z,86.49
2018-07-04T04:28:07.177Z,86.58
2018-07-04T04:29:07.167Z,86.58
2018-07-04T04:30:07.147Z,86.97
2018-07-04T04:31:07.133Z,86.88
2018-07-04T04:32:07.119Z,86.88
2018-07-04T04:33:07.114Z,86.21
2018-07-04T04:34:07.090Z,86.01
2018-07-04T04:35:07.076Z,86.21
2018-07-04T04:36:07.063Z,86.01
2018-07-04T04:37:07.074Z,85.77
2018-07-04T04:38:07.040Z,85.77
2018-07-04T04:39:07.035Z,85.72
2018-07-04T04:40:07.008Z,85.53
2018-07-04T04:41:06.993Z,85.58
2018-07-04T04:42:06.986Z,85.58
2018-07-04T04:43:06.968Z,85.72
2018-07-04T04:44:06.950Z,85.48
2018-07-04T04:45:06.939Z,85.58
2018-07-04T04:46:06.921Z,85.10
2018-07-04T04:47:06.915Z,85.19
2018-07-04T04:48:06.917Z,85.10
2018-07-04T04:49:06.882Z,84.91
2018-07-04T04:50:06.872Z,85.10
2018-07-04T04:51:06.856Z,84.14
2018-07-04T04:52:06.842Z,84.04
2018-07-04T04:53:06.828Z,83.98
2018-07-04T04:54:06.818Z,83.60
2018-07-04T04:55:06.799Z,83.51
2018-07-04T04:56:06.786Z,83.22
2018-07-04T04:57:06.772Z,82.74
2018-07-04T04:58:06.760Z,82.45
2018-07-04T04:59:06.753Z,82.54
2018-07-04T05:00:06.738Z,82.74
2018-07-04T05:01:06.718Z,83.22
2018-07-04T05:02:06.705Z,82.74
2018-07-04T05:03:06.689Z,82.93
2018-07-04T05:04:06.675Z,83.80
2018-07-04T05:05:06.666Z,83.51
2018-07-04T05:06:06.650Z,83.22
2018-07-04T05:07:06.636Z,82.93
2018-07-04T05:08:06.624Z,83.12
2018-07-04T05:09:06.608Z,83.31
2018-07-04T05:10:06.598Z,82.93
2018-07-04T05:11:06.582Z,82.93
2018-07-04T05:12:06.572Z,83.41
2018-07-04T05:13:06.556Z,83.31
2018-07-04T05:14:06.550Z,82.35
2018-07-04T05:15:06.528Z,82.64
2018-07-04T05:16:06.514Z,82.54
2018-07-04T05:17:06.502Z,82.93
2018-07-04T05:18:06.487Z,82.74
2018-07-04T05:19:06.476Z,82.84
2018-07-04T05:20:06.462Z,82.40
2018-07-04T05:21:06.449Z,82.20
2018-07-04T05:22:06.434Z,82.01
2018-07-04T05:23:06.421Z,81.82
2018-07-04T05:24:06.410Z,81.43
2018-07-04T05:25:06.396Z,81.43
2018-07-04T05:26:06.383Z,81.24
2018-07-04T05:27:06.369Z,80.61
2018-07-04T05:28:06.354Z,80.61
2018-07-04T05:29:06.341Z,80.22
2018-07-04T05:30:06.330Z,80.51
2018-07-04T05:31:06.316Z,80.42
2018-07-04T05:32:06.352Z,79.69
2018-07-04T05:33:06.291Z,79.02
2018-07-04T05:34:06.284Z,79.02
2018-07-04T05:35:06.318Z,79.02
2018-07-04T05:36:06.254Z,78.34
2018-07-04T05:37:06.247Z,78.73
2018-07-04T05:38:06.231Z,78.92
2018-07-04T05:39:06.213Z,78.34
2018-07-04T05:40:06.206Z,77.86
2018-07-04T05:41:06.189Z,77.51
2018-07-04T05:42:06.174Z,76.84
2018-07-04T05:43:06.177Z,76.75
2018-07-04T05:44:06.148Z,76.40
2018-07-04T05:45:06.137Z,73.49
2018-07-04T05:46:06.130Z,70.96
2018-07-04T05:47:06.136Z,68.23
2018-07-04T05:48:06.199Z,65.17
2018-07-04T05:49:06.109Z,64.31
2018-07-04T05:50:06.079Z,63.85
2018-07-04T05:51:06.064Z,61.89
2018-07-04T05:52:06.116Z,60.37
2018-07-04T05:53:06.043Z,59.59
2018-07-04T05:54:06.031Z,59.86
2018-07-04T05:55:06.021Z,62.02
2018-07-04T05:56:06.013Z,63.98
2018-07-04T05:57:05.999Z,65.05
2018-07-04T05:58:05.991Z,66.56
2018-07-04T05:59:05.993Z,67.23
2018-07-04T06:00:05.972Z,67.71
2018-07-04T06:01:05.964Z,67.88
2018-07-04T06:02:05.956Z,68.55
2018-07-04T06:03:05.944Z,68.39
2018-07-04T06:04:05.929Z,67.88
2018-07-04T06:05:05.928Z,67.55
2018-07-04T06:06:05.909Z,64.59
2018-07-04T06:07:05.899Z,64.56
2018-07-04T06:08:05.889Z,65.82
2018-07-04T06:09:05.915Z,66.49
2018-07-04T06:10:05.871Z,66.05
2018-07-04T06:11:05.859Z,64.43
2018-07-04T06:12:05.860Z,62.18
2018-07-04T06:13:05.848Z,60.17
2018-07-04T06:14:05.836Z,58.75
2018-07-04T06:15:05.839Z,58.01
2018-07-04T06:16:05.817Z,57.23
2018-07-04T06:17:05.805Z,56.85
2018-07-04T06:18:05.797Z,56.82
2018-07-04T06:19:05.790Z,57.37
2018-07-04T06:20:05.778Z,57.46
2018-07-04T06:21:05.775Z,58.04
2018-07-04T06:22:05.765Z,57.95
2018-07-04T06:23:05.756Z,57.86
2018-07-04T06:24:05.748Z,56.85
2018-07-04T06:25:05.741Z,56.62
2018-07-04T06:26:05.731Z,56.52
2018-07-04T06:27:05.724Z,56.92
2018-07-04T06:28:05.718Z,57.95
2018-07-04T06:29:05.714Z,59.47
2018-07-04T06:30:05.704Z,59.56
2018-07-04T06:31:05.695Z,60.41
2018-07-04T06:32:05.688Z,60.41
2018-07-04T06:33:05.679Z,60.31
2018-07-04T06:34:05.672Z,60.76
2018-07-04T06:35:05.666Z,61.89
2018-07-04T06:36:05.665Z,62.95
2018-07-04T06:37:05.652Z,63.63
2018-07-04T06:38:05.659Z,63.92
2018-07-04T06:39:05.687Z,63.53
2018-07-04T06:40:05.634Z,63.89
2018-07-04T06:41:05.722Z,64.18
2018-07-04T06:42:05.609Z,64.08
2018-07-04T06:43:05.606Z,64.86
2018-07-04T06:44:05.644Z,64.76
2018-07-04T06:45:05.583Z,64.86
2018-07-04T06:46:05.576Z,65.24
2018-07-04T06:47:05.575Z,64.86
2018-07-04T06:48:05.560Z,64.56
2018-07-04T06:49:05.606Z,64.28
2018-07-04T06:50:05.548Z,64.56
2018-07-04T06:51:05.532Z,64.28
2018-07-04T06:52:05.525Z,65.43
2018-07-04T06:53:05.515Z,64.86
2018-07-04T06:54:05.523Z,66.66
2018-07-04T06:55:05.499Z,67.14
2018-07-04T06:56:05.496Z,67.52
2018-07-04T06:57:05.489Z,67.33
2018-07-04T06:58:05.471Z,66.75
2018-07-04T06:59:05.463Z,67.14
2018-07-04T07:00:05.457Z,66.94
2018-07-04T07:01:05.446Z,67.62
2018-07-04T07:02:05.437Z,66.97
2018-07-04T07:03:05.427Z,66.36
2018-07-04T07:04:05.416Z,67.04
2018-07-04T07:05:05.411Z,67.33
2018-07-04T07:06:05.398Z,67.52
2018-07-04T07:07:05.388Z,67.23
2018-07-04T07:08:05.438Z,66.59
2018-07-04T07:09:05.370Z,66.30
2018-07-04T07:10:05.361Z,65.82
2018-07-04T07:11:05.350Z,65.91
2018-07-04T07:12:05.341Z,66.20
2018-07-04T07:13:05.336Z,66.59
2018-07-04T07:14:05.322Z,66.24
2018-07-04T07:15:05.313Z,66.01
2018-07-04T07:16:05.303Z,65.56
2018-07-04T07:17:05.296Z,66.53
2018-07-04T07:18:05.284Z,66.24
2018-07-04T07:19:05.276Z,64.79
2018-07-04T07:20:05.278Z,64.89
2018-07-04T07:21:05.272Z,64.34
2018-07-04T07:22:05.251Z,63.11
2018-07-04T07:23:05.240Z,61.53
2018-07-04T07:24:05.230Z,60.27
2018-07-04T07:25:05.223Z,59.14
2018-07-04T07:26:05.212Z,58.95
2018-07-04T07:27:05.213Z,58.47
2018-07-04T07:28:05.197Z,59.07
2018-07-04T07:29:05.190Z,58.85
2018-07-04T07:30:05.183Z,59.89
2018-07-04T07:31:05.172Z,59.79
2018-07-04T07:32:05.208Z,60.17
2018-07-04T07:33:05.156Z,59.40
2018-07-04T07:34:05.278Z,59.69
2018-07-04T07:35:05.156Z,60.08
2018-07-04T07:36:05.134Z,59.31
2018-07-04T07:37:05.127Z,59.21
2018-07-04T07:38:05.119Z,59.89
2018-07-04T07:39:05.110Z,60.37
2018-07-04T07:40:05.111Z,60.27
2018-07-04T07:41:05.097Z,59.21
2018-07-04T07:42:05.106Z,59.31
2018-07-04T07:43:05.086Z,59.31
2018-07-04T07:44:05.076Z,59.98
2018-07-04T07:45:05.069Z,60.17
2018-07-04T07:46:05.060Z,59.69
2018-07-04T07:47:05.054Z,57.95
2018-07-04T07:48:05.071Z,57.66
2018-07-04T07:49:05.040Z,59.66
2018-07-04T07:50:05.030Z,59.89
2018-07-04T07:51:05.023Z,59.40
2018-07-04T07:52:05.016Z,59.01
2018-07-04T07:53:05.012Z,59.11
2018-07-04T07:54:05.060Z,59.11
2018-07-04T07:55:04.994Z,58.92
2018-07-04T07:56:05.002Z,59.14
2018-07-04T07:57:04.980Z,59.14
2018-07-04T07:58:04.982Z,56.94
2018-07-04T07:59:04.966Z,56.36
2018-07-04T08:00:04.974Z,56.16
2018-07-04T08:01:04.953Z,55.88
2018-07-04T08:02:04.943Z,55.94
2018-07-04T08:03:04.946Z,56.62
2018-07-04T08:04:04.931Z,57.56
2018-07-04T08:05:04.922Z,56.92
2018-07-04T08:06:04.913Z,57.56
2018-07-04T08:07:04.911Z,57.59
2018-07-04T08:08:04.900Z,56.92
2018-07-04T08:09:04.897Z,57.76
2018-07-04T08:10:04.887Z,58.92
2018-07-04T08:11:04.880Z,58.65
2018-07-04T08:12:04.871Z,58.53
2018-07-04T08:13:04.869Z,58.14
2018-07-04T08:14:04.859Z,57.71
2018-07-04T08:15:04.848Z,54.59
2018-07-04T08:16:04.856Z,55.36
2018-07-04T08:17:04.832Z,56.34
2018-07-04T08:18:04.827Z,56.24
2018-07-04T08:19:04.822Z,56.04
2018-07-04T08:20:04.822Z,56.46
2018-07-04T08:21:04.805Z,55.30
2018-07-04T08:22:04.798Z,54.84
2018-07-04T08:23:04.791Z,55.52
2018-07-04T08:24:04.793Z,55.71
2018-07-04T08:25:04.785Z,54.35
2018-07-04T08:26:04.768Z,54.19
2018-07-04T08:27:04.804Z,54.16
2018-07-04T08:28:04.755Z,54.58
2018-07-04T08:29:04.748Z,55.22
2018-07-04T08:30:04.741Z,55.13
2018-07-04T08:31:04.736Z,54.13
2018-07-04T08:32:04.727Z,54.03
2018-07-04T08:33:04.726Z,54.52
2018-07-04T08:34:04.712Z,54.52
2018-07-04T08:35:04.705Z,54.43
2018-07-04T08:36:04.700Z,54.71
2018-07-04T08:37:04.692Z,54.45
2018-07-04T08:38:04.692Z,54.84
2018-07-04T08:39:04.680Z,54.74
2018-07-04T08:40:04.672Z,54.38
2018-07-04T08:41:04.663Z,54.19
2018-07-04T08:42:04.705Z,52.83
2018-07-04T08:43:04.648Z,53.41
2018-07-04T08:44:04.641Z,54.48
2018-07-04T08:45:04.644Z,54.28
2018-07-04T08:46:04.625Z,54.02
2018-07-04T08:47:04.620Z,53.53
2018-07-04T08:48:04.613Z,53.63
2018-07-04T08:49:04.605Z,52.11
2018-07-04T08:50:04.596Z,52.20
2018-07-04T08:51:04.600Z,51.89
2018-07-04T08:52:04.585Z,52.76
2018-07-04T08:53:04.580Z,53.24
2018-07-04T08:54:04.568Z,52.76
2018-07-04T08:55:04.561Z,52.98
2018-07-04T08:56:04.558Z,53.08
2018-07-04T08:57:04.546Z,52.08
2018-07-04T08:58:04.540Z,52.40
2018-07-04T08:59:04.540Z,50.48
2018-07-04T09:00:04.536Z,50.48
2018-07-04T09:01:04.527Z,50.77
2018-07-04T09:02:04.510Z,50.96
2018-07-04T09:03:04.503Z,49.63
2018-07-04T09:04:04.497Z,50.46
2018-07-04T09:05:04.495Z,51.43
2018-07-04T09:06:04.484Z,51.43
2018-07-04T09:07:04.476Z,51.53
2018-07-04T09:08:04.476Z,50.38
2018-07-04T09:09:04.472Z,50.02
2018-07-04T09:10:04.475Z,49.07
2018-07-04T09:11:04.451Z,48.88
2018-07-04T09:12:04.444Z,47.74
2018-07-04T09:13:04.437Z,47.32
2018-07-04T09:14:04.433Z,47.61
2018-07-04T09:15:04.428Z,48.27
2018-07-04T09:16:04.438Z,48.10
2018-07-04T09:17:04.422Z,48.39
2018-07-04T09:18:04.411Z,47.71
2018-07-04T09:19:04.408Z,46.77
2018-07-04T09:20:04.403Z,44.94
2018-07-04T09:21:04.400Z,44.86
2018-07-04T09:22:04.399Z,46.08
2018-07-04T09:23:04.402Z,46.37
2018-07-04T09:24:04.398Z,45.91
2018-07-04T09:25:04.490Z,45.84
2018-07-04T09:26:04.393Z,44.86
2018-07-04T09:27:04.384Z,43.52
2018-07-04T09:28:04.384Z,43.71
2018-07-04T09:29:04.381Z,43.43
2018-07-04T09:30:04.379Z,43.64
2018-07-04T09:31:04.378Z,43.47
2018-07-04T09:32:04.374Z,42.20
2018-07-04T09:33:04.374Z,41.42
2018-07-04T09:34:04.372Z,41.32
2018-07-04T09:35:04.369Z,41.52
2018-07-04T09:36:04.373Z,40.56
2018-07-04T09:37:04.369Z,41.11
2018-07-04T09:38:04.366Z,41.52
2018-07-04T09:39:04.364Z,40.55
2018-07-04T09:40:04.364Z,41.01
2018-07-04T09:41:04.378Z,41.57
2018-07-04T09:42:04.361Z,41.96
2018-07-04T09:43:04.358Z,43.01
2018-07-04T09:44:04.358Z,42.94
2018-07-04T09:45:04.357Z,43.13
2018-07-04T09:46:04.371Z,42.96
2018-07-04T09:47:04.356Z,44.05
2018-07-04T09:48:04.363Z,43.37
2018-07-04T09:49:04.359Z,42.90
2018-07-04T09:50:04.405Z,42.80
2018-07-04T09:51:04.353Z,42.80
2018-07-04T09:52:04.358Z,42.83
2018-07-04T09:53:04.350Z,42.44
2018-07-04T09:54:04.351Z,42.93
2018-07-04T09:55:04.355Z,42.63
2018-07-04T09:56:04.348Z,42.73
2018-07-04T09:57:04.353Z,42.61
2018-07-04T09:58:04.349Z,43.49
2018-07-04T09:59:04.351Z,43.85
2018-07-04T10:00:04.344Z,43.95
2018-07-04T10:01:04.345Z,43.37
2018-07-04T10:02:04.350Z,43.00
2018-07-04T10:03:04.335Z,42.71
2018-07-04T10:04:04.333Z,42.34
2018-07-04T10:05:04.331Z,41.36
2018-07-04T10:06:04.329Z,41.07
2018-07-04T10:07:04.350Z,40.60
2018-07-04T10:08:04.333Z,39.76
2018-07-04T10:09:04.323Z,39.00
2018-07-04T10:10:04.322Z,37.95
2018-07-04T10:11:04.326Z,37.95
2018-07-04T10:12:04.317Z,36.88
2018-07-04T10:13:04.315Z,36.02
2018-07-04T10:14:04.319Z,35.25
2018-07-04T10:15:04.313Z,34.20
2018-07-04T10:16:04.310Z,33.80
2018-07-04T10:17:04.311Z,33.90
2018-07-04T10:18:04.313Z,34.18
2018-07-04T10:19:04.308Z,34.28
2018-07-04T10:20:04.310Z,33.89
2018-07-04T10:21:04.311Z,33.12
2018-07-04T10:22:04.310Z,32.64
2018-07-04T10:23:04.311Z,31.99
2018-07-04T10:24:04.313Z,31.79
2018-07-04T10:25:04.317Z,30.73
2018-07-04T10:26:04.315Z,30.43
2018-07-04T10:27:04.326Z,29.66
2018-07-04T10:28:04.322Z,29.96
2018-07-04T10:29:04.324Z,30.24
2018-07-04T10:30:04.328Z,30.30
2018-07-04T10:31:04.331Z,30.60
2018-07-04T10:32:04.336Z,30.40
2018-07-04T10:33:04.356Z,31.68
2018-07-04T10:34:04.343Z,31.48
2018-07-04T10:35:04.347Z,30.80
2018-07-04T10:36:04.354Z,30.22
2018-07-04T10:37:04.362Z,29.93
2018-07-04T10:38:04.367Z,29.75
2018-07-04T10:39:04.371Z,30.14
2018-07-04T10:40:04.371Z,29.55
2018-07-04T10:41:04.379Z,29.64
2018-07-04T10:42:04.403Z,30.11
2018-07-04T10:43:04.382Z,30.01
2018-07-04T10:44:04.388Z,30.49
2018-07-04T10:45:04.394Z,30.99
2018-07-04T10:46:04.399Z,30.52
2018-07-04T10:47:04.401Z,30.14
2018-07-04T10:48:04.419Z,30.73
2018-07-04T10:49:04.616Z,30.24
2018-07-04T10:50:04.427Z,29.96
2018-07-04T10:51:04.513Z,30.25
2018-07-04T10:52:04.429Z,29.58
2018-07-04T10:53:04.448Z,28.69
2018-07-04T10:54:04.449Z,29.21
2018-07-04T10:55:04.448Z,29.49
2018-07-04T10:56:04.458Z,29.31
2018-07-04T10:57:04.459Z,29.80
2018-07-04T10:58:04.467Z,30.00
2018-07-04T10:59:04.473Z,30.10
2018-07-04T11:00:04.485Z,29.59
2018-07-04T11:01:04.491Z,29.77
2018-07-04T11:02:04.494Z,30.66
2018-07-04T11:03:04.506Z,29.69
2018-07-04T11:04:04.513Z,29.89
2018-07-04T11:05:04.517Z,29.89
2018-07-04T11:06:04.522Z,28.52
2018-07-04T11:07:04.528Z,27.62
2018-07-04T11:08:04.536Z,27.70
2018-07-04T11:09:04.568Z,28.95
2018-07-04T11:10:04.561Z,30.68
2018-07-04T11:11:04.576Z,30.60
2018-07-04T11:12:04.568Z,30.53
2018-07-04T11:13:04.590Z,29.86
2018-07-04T11:14:04.585Z,29.59
2018-07-04T11:15:04.590Z,29.61
2018-07-04T11:16:04.624Z,29.31
2018-07-04T11:17:04.706Z,26.95
2018-07-04T11:18:04.610Z,28.83
2018-07-04T11:19:04.645Z,28.82
2018-07-04T11:20:04.633Z,28.82
2018-07-04T11:21:04.648Z,28.82
2018-07-04T11:22:04.646Z,28.82
2018-07-04T11:23:04.657Z,28.92
2018-07-04T11:24:04.658Z,29.30
2018-07-04T11:25:04.667Z,29.28
2018-07-04T11:26:04.672Z,28.85
2018-07-04T11:27:04.681Z,28.83
2018-07-04T11:28:04.687Z,29.22
2018-07-04T11:29:04.708Z,29.11
2018-07-04T11:30:04.703Z,29.41
2018-07-04T11:31:04.709Z,29.88
2018-07-04T11:32:04.716Z,30.94
2018-07-04T11:33:04.722Z,31.71
2018-07-04T11:34:04.730Z,32.40
2018-07-04T11:35:04.735Z,31.73
2018-07-04T11:36:04.745Z,31.45
2018-07-04T11:37:04.752Z,30.85
2018-07-04T11:38:04.760Z,30.85
2018-07-04T11:39:04.768Z,30.36
2018-07-04T11:40:04.764Z,31.04
2018-07-04T11:41:04.772Z,31.04
2018-07-04T11:42:04.775Z,31.26
2018-07-04T11:43:04.779Z,30.68
2018-07-04T11:44:04.787Z,29.44
2018-07-04T11:45:04.792Z,28.45
2018-07-04T11:46:04.794Z,28.16
2018-07-04T11:47:04.807Z,28.74
2018-07-04T11:48:04.810Z,28.82
2018-07-04T11:49:04.808Z,29.49
2018-07-04T11:50:04.813Z,30.18
2018-07-04T11:51:04.824Z,29.90
2018-07-04T11:52:04.833Z,29.82
2018-07-04T11:53:04.831Z,29.82
2018-07-04T11:54:04.833Z,30.40
2018-07-04T11:55:04.831Z,31.07
2018-07-04T11:56:04.843Z,31.27
2018-07-04T11:57:04.879Z,30.49
2018-07-04T11:58:04.856Z,30.57
2018-07-04T11:59:04.865Z,31.34
2018-07-04T12:00:04.842Z,31.71
2018-07-04T12:01:04.849Z,32.48
2018-07-04T12:02:04.855Z,32.58
2018-07-04T12:03:04.850Z,32.87
2018-07-04T12:04:04.853Z,32.50
2018-07-04T12:05:04.850Z,32.50
2018-07-04T12:06:04.859Z,32.99
2018-07-04T12:07:04.849Z,32.78
2018-07-04T12:08:04.854Z,32.87
2018-07-04T12:09:04.848Z,32.87
2018-07-04T12:10:04.851Z,32.09
2018-07-04T12:11:04.848Z,31.80
2018-07-04T12:12:04.857Z,32.37
2018-07-04T12:13:04.847Z,32.86
2018-07-04T12:14:04.846Z,32.78
2018-07-04T12:15:04.843Z,32.48
2018-07-04T12:16:04.848Z,32.09
2018-07-04T12:17:04.848Z,31.80
2018-07-04T12:18:04.855Z,30.43
2018-07-04T12:19:04.847Z,29.75
2018-07-04T12:20:04.939Z,29.75
2018-07-04T12:21:04.847Z,28.68
2018-07-04T12:22:04.851Z,29.28
2018-07-04T12:23:04.834Z,29.75
2018-07-04T12:24:04.837Z,29.17
2018-07-04T12:25:04.831Z,29.74
2018-07-04T12:26:04.829Z,29.74
2018-07-04T12:27:04.834Z,29.85
2018-07-04T12:28:04.824Z,29.55
2018-07-04T12:29:04.839Z,29.36
2018-07-04T12:30:04.820Z,29.84
2018-07-04T12:31:04.826Z,29.63
2018-07-04T12:32:04.929Z,30.22
2018-07-04T12:33:04.814Z,30.52
2018-07-04T12:34:04.812Z,30.33
2018-07-04T12:35:04.821Z,30.72
2018-07-04T12:36:04.808Z,29.94
2018-07-04T12:37:04.807Z,30.22
2018-07-04T12:38:04.821Z,30.61
2018-07-04T12:39:04.799Z,30.72
2018-07-04T12:40:04.800Z,30.04
2018-07-04T12:41:04.793Z,30.61
2018-07-04T12:42:04.799Z,31.00
2018-07-04T12:43:04.808Z,30.90
2018-07-04T12:44:04.784Z,30.61
2018-07-04T12:45:04.780Z,30.12
2018-07-04T12:46:04.776Z,30.79
2018-07-04T12:47:04.827Z,30.77
2018-07-04T12:48:04.772Z,30.86
2018-07-04T12:49:04.771Z,31.35
2018-07-04T12:50:04.764Z,31.74
2018-07-04T12:51:04.796Z,31.85
2018-07-04T12:52:04.759Z,31.65